createdAt,value
2022-11-16T00:00:10.632Z,3.97
2022-11-16T00:03:14.310Z,3.40
2022-11-16T00:06:18.534Z,4.20
2022-11-16T00:09:27.086Z,4.17
2022-11-16T00:12:30.817Z,4.47
2022-11-16T00:15:35.772Z,4.10
2022-11-16T00:18:39.234Z,4.10
2022-11-16T00:21:42.891Z,4.00
2022-11-16T00:24:46.454Z,3.90
2022-11-16T00:27:49.974Z,3.80
2022-11-16T00:31:01.582Z,4.00
2022-11-16T00:34:05.245Z,3.80
2022-11-16T00:37:08.770Z,4.10
2022-11-16T00:40:14.129Z,3.57
2022-11-16T00:43:17.883Z,3.87
2022-11-16T00:46:23.164Z,4.47
2022-11-16T00:49:26.748Z,3.93
2022-11-16T00:52:30.346Z,4.23
2022-11-16T00:55:35.099Z,4.20
2022-11-16T00:58:38.702Z,3.60
2022-11-16T01:01:43.912Z,4.17
2022-11-16T01:04:48.108Z,4.23
2022-11-16T01:07:52.849Z,4.27
2022-11-16T01:11:16.465Z,4.13
2022-11-16T01:14:20.027Z,4.10
2022-11-16T01:17:25.027Z,4.00
2022-11-16T01:20:30.770Z,4.57
2022-11-16T01:23:34.403Z,4.57
2022-11-16T01:26:37.952Z,4.23
2022-11-16T01:29:41.673Z,3.80
2022-11-16T01:32:46.738Z,4.27
2022-11-16T01:35:50.569Z,4.97
2022-11-16T01:38:54.212Z,4.10
2022-11-16T01:41:57.897Z,5.03
2022-11-16T01:45:07.494Z,4.60
2022-11-16T01:48:17.366Z,4.43
2022-11-16T01:51:22.209Z,4.83
2022-11-16T01:54:26.068Z,4.83
2022-11-16T01:57:35.418Z,4.70
2022-11-16T02:00:39.162Z,5.10
2022-11-16T02:03:44.138Z,4.80
2022-11-16T02:07:03.988Z,5.17
2022-11-16T02:10:25.403Z,4.43
2022-11-16T02:13:43.543Z,4.63
2022-11-16T02:16:59.204Z,4.27
2022-11-16T02:20:48.888Z,4.70
2022-11-16T02:24:36.361Z,4.53
2022-11-16T02:28:21.982Z,5.17
2022-11-16T02:31:35.108Z,4.77
2022-11-16T02:34:45.640Z,4.70
2022-11-16T02:38:01.120Z,4.60
2022-11-16T02:41:11.300Z,4.90
2022-11-16T02:44:21.150Z,5.03
2022-11-16T02:47:31.716Z,5.07
2022-11-16T02:50:38.087Z,5.47
2022-11-16T02:54:03.257Z,5.17
2022-11-16T02:57:45.281Z,5.37
2022-11-16T03:00:59.265Z,5.10
2022-11-16T03:04:14.186Z,6.10
2022-11-16T03:07:24.883Z,6.73
2022-11-16T03:10:46.226Z,6.60
2022-11-16T03:13:52.002Z,6.07
2022-11-16T03:16:59.415Z,6.00
2022-11-16T03:20:10.941Z,6.57
2022-11-16T03:23:15.609Z,6.70
2022-11-16T03:26:27.514Z,7.97
2022-11-16T03:29:36.585Z,8.20
2022-11-16T03:32:49.560Z,7.53
2022-11-16T03:36:04.778Z,8.03
2022-11-16T03:39:17.155Z,9.73
2022-11-16T03:42:24.490Z,9.60
2022-11-16T03:45:29.422Z,9.63
2022-11-16T03:48:37.126Z,9.17
2022-11-16T03:51:42.898Z,8.80
2022-11-16T03:54:46.481Z,10.03
2022-11-16T03:57:50.015Z,10.83
2022-11-16T04:00:54.314Z,10.67
2022-11-16T04:03:58.043Z,10.33
2022-11-16T04:07:20.587Z,9.90
2022-11-16T04:10:41.770Z,11.33
2022-11-16T04:14:08.015Z,10.93
2022-11-16T04:17:31.753Z,11.20
2022-11-16T04:20:52.762Z,11.83
2022-11-16T04:24:16.007Z,12.10
2022-11-16T04:27:43.978Z,11.77
2022-11-16T04:31:09.271Z,12.27
2022-11-16T04:34:41.691Z,13.83
2022-11-16T04:37:52.685Z,15.20
2022-11-16T04:40:57.715Z,14.90
2022-11-16T04:44:01.302Z,15.77
2022-11-16T04:47:06.766Z,14.23
2022-11-16T04:50:11.452Z,15.60
2022-11-16T04:53:15.898Z,15.63
2022-11-16T04:56:20.847Z,15.87
2022-11-16T04:59:24.428Z,17.80
2022-11-16T05:02:28.062Z,18.47
2022-11-16T05:05:31.579Z,18.77
2022-11-16T05:08:35.380Z,19.73
2022-11-16T05:11:40.619Z,19.33
2022-11-16T05:14:44.699Z,19.07
2022-11-16T05:17:48.400Z,19.77
2022-11-16T05:21:02.850Z,20.83
2022-11-16T05:24:24.800Z,20.90
2022-11-16T05:27:41.544Z,21.70
2022-11-16T05:30:47.144Z,22.30
2022-11-16T05:33:50.831Z,23.63
2022-11-16T05:36:55.096Z,23.03
2022-11-16T05:39:58.818Z,23.17
2022-11-16T05:43:03.742Z,22.87
2022-11-16T05:46:07.723Z,22.10
2022-11-16T05:49:12.129Z,23.07
2022-11-16T05:52:15.782Z,23.27
2022-11-16T05:55:19.376Z,23.30
2022-11-16T05:58:24.460Z,23.10
2022-11-16T06:01:28.469Z,20.97
2022-11-16T06:04:32.107Z,23.47
2022-11-16T06:07:35.683Z,23.10
2022-11-16T06:10:39.448Z,23.83
2022-11-16T06:13:44.497Z,23.30
2022-11-16T06:16:48.129Z,24.10
2022-11-16T06:19:51.646Z,24.07
2022-11-16T06:22:55.266Z,22.90
2022-11-16T06:25:59.015Z,22.73
2022-11-16T06:29:04.714Z,21.40
2022-11-16T06:32:08.258Z,22.17
2022-11-16T06:35:12.119Z,21.80
2022-11-16T06:38:18.718Z,21.93
2022-11-16T06:41:22.967Z,21.60
2022-11-16T06:44:27.910Z,21.17
2022-11-16T06:47:31.594Z,22.40
2022-11-16T06:50:35.227Z,23.73
2022-11-16T06:53:38.776Z,21.87
2022-11-16T06:56:42.310Z,22.63
2022-11-16T06:59:47.313Z,22.70
2022-11-16T07:02:50.946Z,21.77
2022-11-16T07:05:55.339Z,21.97
2022-11-16T07:08:58.992Z,21.97
2022-11-16T07:12:02.621Z,22.60
2022-11-16T07:15:09.217Z,22.17
2022-11-16T07:18:13.255Z,23.00
2022-11-16T07:21:18.628Z,24.33
2022-11-16T07:24:22.213Z,23.87
2022-11-16T07:27:25.874Z,22.43
2022-11-16T07:30:30.927Z,23.07
2022-11-16T07:33:34.916Z,24.87
2022-11-16T07:36:38.469Z,23.60
2022-11-16T07:39:42.963Z,25.37
2022-11-16T07:42:46.626Z,26.03
2022-11-16T07:45:53.154Z,24.40
2022-11-16T07:48:57.961Z,24.43
2022-11-16T07:52:03.028Z,24.20
2022-11-16T07:55:07.393Z,23.97
2022-11-16T07:58:10.983Z,23.93
2022-11-16T08:01:18.693Z,22.90
2022-11-16T08:04:22.538Z,23.47
2022-11-16T08:07:26.379Z,21.27
2022-11-16T08:10:31.497Z,22.43
2022-11-16T08:13:38.053Z,21.77
2022-11-16T08:16:43.438Z,22.77
2022-11-16T08:19:47.078Z,20.77
2022-11-16T08:22:50.864Z,21.97
2022-11-16T08:25:58.748Z,20.43
2022-11-16T08:29:02.343Z,20.03
2022-11-16T08:32:07.706Z,21.37
2022-11-16T08:35:11.664Z,22.00
2022-11-16T08:38:15.239Z,21.93
2022-11-16T08:41:20.483Z,20.37
2022-11-16T08:44:24.555Z,21.83
2022-11-16T08:47:29.486Z,22.43
2022-11-16T08:50:44.128Z,20.93
2022-11-16T08:53:58.129Z,22.40
2022-11-16T08:57:01.899Z,22.70
2022-11-16T09:00:06.730Z,22.07
2022-11-16T09:03:11.690Z,23.73
2022-11-16T09:06:16.546Z,22.77
2022-11-16T09:09:20.530Z,22.33
2022-11-16T09:12:24.452Z,24.17
2022-11-16T09:15:41.006Z,23.43
2022-11-16T09:18:47.246Z,24.50
2022-11-16T09:21:50.937Z,23.90
2022-11-16T09:24:54.505Z,25.10
2022-11-16T09:27:58.033Z,23.73
2022-11-16T09:31:04.109Z,26.47
2022-11-16T09:34:10.653Z,24.10
2022-11-16T09:37:15.682Z,23.37
2022-11-16T09:40:19.760Z,26.00
2022-11-16T09:43:45.373Z,25.13
2022-11-16T09:46:56.226Z,24.60
2022-11-16T09:50:05.405Z,23.67
2022-11-16T09:53:33.583Z,24.40
2022-11-16T09:56:44.063Z,24.57
2022-11-16T09:59:53.055Z,25.33
2022-11-16T10:03:06.732Z,24.47
2022-11-16T10:06:23.335Z,25.20
2022-11-16T10:09:27.858Z,25.17
2022-11-16T10:12:43.947Z,24.50
2022-11-16T10:16:03.181Z,22.13
2022-11-16T10:19:23.474Z,24.27
2022-11-16T10:22:46.950Z,23.93
2022-11-16T10:25:59.281Z,23.07
2022-11-16T10:29:33.747Z,23.90
2022-11-16T10:32:46.684Z,23.30
2022-11-16T10:35:54.186Z,23.67
2022-11-16T10:39:02.630Z,24.03
2022-11-16T10:42:13.027Z,23.07
2022-11-16T10:45:23.366Z,24.03
2022-11-16T10:48:39.635Z,22.90
2022-11-16T10:51:43.921Z,25.63
2022-11-16T10:54:48.831Z,25.37
2022-11-16T10:57:57.858Z,23.73
2022-11-16T11:01:01.516Z,24.17
2022-11-16T11:04:20.885Z,22.03
2022-11-16T11:07:31.839Z,23.87
2022-11-16T11:10:39.699Z,23.83
2022-11-16T11:13:43.359Z,22.63
2022-11-16T11:16:46.874Z,22.57
2022-11-16T11:20:00.650Z,21.57
2022-11-16T11:23:14.933Z,21.87
2022-11-16T11:26:36.977Z,22.53
2022-11-16T11:29:44.321Z,23.43
2022-11-16T11:32:49.753Z,21.67
2022-11-16T11:36:06.721Z,22.10
2022-11-16T11:39:30.861Z,22.30
2022-11-16T11:42:36.059Z,20.90
2022-11-16T11:45:52.892Z,23.60
2022-11-16T11:49:04.687Z,22.40
2022-11-16T11:52:19.457Z,22.33
2022-11-16T11:55:23.268Z,23.57
2022-11-16T11:58:34.290Z,21.93
2022-11-16T12:02:03.538Z,21.73
2022-11-16T12:05:43.988Z,22.27
2022-11-16T12:09:20.414Z,22.03
2022-11-16T12:12:41.073Z,22.30
2022-11-16T12:16:04.970Z,22.87
2022-11-16T12:20:09.174Z,22.27
2022-11-16T12:24:01.188Z,21.93
2022-11-16T12:27:26.990Z,21.60
2022-11-16T12:30:39.485Z,23.07
2022-11-16T12:33:58.586Z,21.13
2022-11-16T12:37:14.828Z,21.67
2022-11-16T12:40:36.911Z,22.57
2022-11-16T12:43:50.867Z,21.97
2022-11-16T12:47:07.376Z,22.30
2022-11-16T12:50:39.111Z,21.33
2022-11-16T12:54:16.203Z,23.83
2022-11-16T12:57:30.329Z,21.33
2022-11-16T13:00:51.331Z,21.20
2022-11-16T13:04:01.823Z,21.33
2022-11-16T13:07:18.273Z,22.07
2022-11-16T13:10:28.023Z,21.30
2022-11-16T13:13:38.609Z,20.97
2022-11-16T13:16:43.236Z,22.77
2022-11-16T13:20:02.019Z,21.70
2022-11-16T13:23:15.508Z,18.13
2022-11-16T13:26:36.478Z,19.73
2022-11-16T13:29:51.302Z,18.53
2022-11-16T13:33:20.176Z,18.17
2022-11-16T13:36:47.871Z,17.97
2022-11-16T13:40:24.727Z,15.70
2022-11-16T13:43:28.306Z,17.57
2022-11-16T13:46:55.890Z,17.10
2022-11-16T13:50:03.621Z,17.07
2022-11-16T13:56:52.621Z,16.67
2022-11-16T14:00:12.590Z,18.23
2022-11-16T14:03:38.275Z,18.50
2022-11-16T14:06:59.737Z,18.30
2022-11-16T14:10:08.136Z,17.13
2022-11-16T14:13:40.079Z,15.70
2022-11-16T14:16:50.068Z,15.43
2022-11-16T14:19:57.138Z,16.57
2022-11-16T14:23:22.837Z,17.67
2022-11-16T14:26:49.652Z,16.10
2022-11-16T14:30:04.758Z,16.47
2022-11-16T14:33:25.063Z,16.73
2022-11-16T14:36:40.929Z,17.00
2022-11-16T14:39:45.722Z,18.47
2022-11-16T14:43:15.377Z,18.10
2022-11-16T14:46:24.234Z,17.23
2022-11-16T14:49:30.346Z,17.40
2022-11-16T14:52:41.258Z,16.23
2022-11-16T14:55:46.684Z,15.53
2022-11-16T14:58:56.599Z,16.20
2022-11-16T15:02:11.878Z,15.03
2022-11-16T15:05:18.948Z,15.27
2022-11-16T15:08:29.645Z,14.93
2022-11-16T15:11:56.268Z,16.40
2022-11-16T15:15:07.333Z,16.87
2022-11-16T15:18:19.436Z,16.17
2022-11-16T15:21:24.763Z,16.77
2022-11-16T15:24:32.031Z,16.60
2022-11-16T15:27:39.840Z,14.83
2022-11-16T15:30:47.392Z,14.27
2022-11-16T15:33:53.477Z,14.50
2022-11-16T15:36:57.129Z,14.53
2022-11-16T15:40:03.782Z,17.87
2022-11-16T15:43:08.941Z,15.10
2022-11-16T15:46:16.263Z,13.93
2022-11-16T15:49:30.770Z,12.90
2022-11-16T15:52:54.723Z,15.40
2022-11-16T15:55:59.796Z,16.90
2022-11-16T15:59:14.694Z,16.37
2022-11-16T16:02:23.297Z,18.17
2022-11-16T16:05:38.160Z,17.90
2022-11-16T16:08:42.075Z,17.63
2022-11-16T16:11:45.993Z,15.27
2022-11-16T16:14:52.307Z,14.20
2022-11-16T16:17:56.664Z,15.20
2022-11-16T16:21:04.570Z,15.17
2022-11-16T16:24:32.452Z,17.27
2022-11-16T16:27:41.331Z,15.20
2022-11-16T16:30:45.053Z,15.20
2022-11-16T16:33:48.792Z,14.60
2022-11-16T16:36:53.906Z,15.90
2022-11-16T16:39:58.664Z,15.07
2022-11-16T16:43:02.502Z,14.87
2022-11-16T16:46:07.237Z,13.27
2022-11-16T16:49:10.877Z,13.13
2022-11-16T16:52:16.664Z,15.27
2022-11-16T16:55:20.832Z,14.87
2022-11-16T16:58:24.643Z,14.60
2022-11-16T17:01:29.232Z,15.23
2022-11-16T17:04:34.402Z,13.90
2022-11-16T17:07:40.762Z,14.37
2022-11-16T17:10:44.394Z,16.60
2022-11-16T17:13:48.318Z,14.80
2022-11-16T17:16:52.568Z,14.07
2022-11-16T17:19:56.990Z,14.67
2022-11-16T17:23:03.210Z,13.43
2022-11-16T17:26:10.157Z,14.37
2022-11-16T17:29:14.187Z,14.17
2022-11-16T17:32:18.904Z,13.00
2022-11-16T17:35:23.665Z,12.73
2022-11-16T17:38:29.012Z,13.47
2022-11-16T17:41:32.646Z,13.60
2022-11-16T17:44:36.314Z,16.87
2022-11-16T17:47:40.944Z,11.13
2022-11-16T17:50:49.066Z,12.67
2022-11-16T17:53:54.717Z,12.27
2022-11-16T17:56:58.440Z,13.23
2022-11-16T18:00:02.172Z,12.57
2022-11-16T18:03:05.927Z,11.90
2022-11-16T18:06:13.487Z,11.50
2022-11-16T18:09:18.875Z,11.53
2022-11-16T18:12:22.765Z,10.80
2022-11-16T18:15:29.934Z,10.77
2022-11-16T18:18:34.007Z,10.23
2022-11-16T18:21:41.971Z,8.90
2022-11-16T18:24:47.615Z,14.97
2022-11-16T18:27:54.074Z,21.57
2022-11-16T18:31:05.219Z,9.10
2022-11-16T18:34:09.244Z,7.93
2022-11-16T18:37:12.846Z,8.47
2022-11-16T18:40:18.189Z,6.97
2022-11-16T18:43:21.785Z,7.07
2022-11-16T18:46:27.679Z,7.27
2022-11-16T18:49:31.282Z,6.13
2022-11-16T18:52:34.888Z,6.17
2022-11-16T18:55:39.794Z,5.30
2022-11-16T18:58:50.207Z,5.80
2022-11-16T19:01:55.347Z,5.70
2022-11-16T19:04:58.955Z,6.40
2022-11-16T19:08:02.516Z,5.67
2022-11-16T19:11:09.394Z,7.47
2022-11-16T19:14:13.499Z,4.13
2022-11-16T19:17:18.728Z,4.70
2022-11-16T19:20:22.379Z,5.63
2022-11-16T19:23:25.941Z,4.23
2022-11-16T19:26:31.113Z,5.03
2022-11-16T19:29:34.687Z,4.77
2022-11-16T19:32:39.707Z,4.87
2022-11-16T19:35:43.213Z,4.70
2022-11-16T19:38:49.637Z,5.17
2022-11-16T19:41:54.789Z,5.13
2022-11-16T19:44:58.488Z,5.03
2022-11-16T19:48:02.376Z,6.17
2022-11-16T19:51:08.246Z,5.43
2022-11-16T19:54:14.061Z,5.63
2022-11-16T19:57:20.840Z,4.67
2022-11-16T20:00:24.895Z,5.30
2022-11-16T20:03:28.817Z,5.00
2022-11-16T20:06:35.166Z,5.00
2022-11-16T20:09:38.965Z,4.87
2022-11-16T20:12:44.226Z,5.30
2022-11-16T20:15:47.757Z,5.77
2022-11-16T20:18:53.591Z,5.73
2022-11-16T20:21:59.532Z,5.83
2022-11-16T20:25:03.129Z,5.83
2022-11-16T20:28:08.569Z,5.57
2022-11-16T20:31:15.778Z,6.03
2022-11-16T20:34:20.815Z,6.13
2022-11-16T20:37:24.622Z,5.43
2022-11-16T20:40:28.270Z,6.00
2022-11-16T20:43:33.822Z,5.57
2022-11-16T20:46:38.558Z,5.70
2022-11-16T20:49:42.065Z,5.87
2022-11-16T20:52:49.972Z,5.70
2022-11-16T20:55:57.469Z,5.47
2022-11-16T20:59:02.722Z,6.13
2022-11-16T21:02:06.334Z,6.10
2022-11-16T21:05:10.881Z,5.70
2022-11-16T21:08:14.946Z,6.10
2022-11-16T21:11:21.377Z,5.17
2022-11-16T21:14:25.915Z,5.10
2022-11-16T21:17:29.499Z,5.13
2022-11-16T21:20:33.028Z,5.37
2022-11-16T21:23:39.085Z,5.07
2022-11-16T21:26:42.708Z,6.67
2022-11-16T21:29:47.812Z,4.90
2022-11-16T21:32:51.471Z,5.17
2022-11-16T21:35:56.075Z,5.03
2022-11-16T21:39:00.282Z,4.73
2022-11-16T21:42:04.205Z,4.63
2022-11-16T21:45:11.295Z,4.97
2022-11-16T21:48:15.842Z,4.73
2022-11-16T21:51:22.305Z,5.00
2022-11-16T21:54:45.985Z,5.40
2022-11-16T21:57:49.932Z,4.90
2022-11-16T22:00:57.870Z,4.53
2022-11-16T22:04:18.708Z,5.20
2022-11-16T22:07:36.696Z,4.70
2022-11-16T22:10:40.739Z,4.37
2022-11-16T22:13:44.992Z,5.10
2022-11-16T22:16:49.916Z,4.80
2022-11-16T22:19:53.526Z,5.10
2022-11-16T22:22:57.085Z,5.30
2022-11-16T22:26:04.039Z,5.13
2022-11-16T22:29:07.930Z,5.47
2022-11-16T22:32:12.890Z,4.63
2022-11-16T22:35:16.589Z,5.43
2022-11-16T22:38:20.206Z,5.10
2022-11-16T22:41:23.810Z,5.23
2022-11-16T22:44:27.486Z,5.37
2022-11-16T22:47:33.429Z,5.17
2022-11-16T22:50:37.039Z,5.03
2022-11-16T22:53:40.553Z,5.20
2022-11-16T22:56:45.035Z,5.10
2022-11-16T22:59:48.595Z,4.73
2022-11-16T23:02:53.747Z,4.73
2022-11-16T23:05:57.456Z,5.50
2022-11-16T23:09:01.363Z,5.20
2022-11-16T23:12:23.086Z,4.60
2022-11-16T23:15:44.308Z,4.63
2022-11-16T23:18:49.229Z,4.73
2022-11-16T23:22:10.430Z,4.40
2022-11-16T23:25:31.875Z,4.70
2022-11-16T23:28:35.844Z,4.90
2022-11-16T23:31:39.736Z,4.97
2022-11-16T23:34:44.764Z,4.20
2022-11-16T23:37:53.578Z,4.27
2022-11-16T23:40:57.136Z,4.30
2022-11-16T23:43:59.737Z,4.63
2022-11-16T23:47:03.347Z,5.00
2022-11-16T23:50:09.419Z,4.37
2022-11-16T23:53:13.898Z,4.80
2022-11-16T23:56:17.719Z,4.27
2022-11-16T23:59:21.309Z,4.13
